Portada
METAR-TAF:

METAR-TAF

Aeroports :

Kaduna, Nigèria

latitud: 10-36N, longitud: 007-27E, altitud: 645 m

Observació

L'informe es va fer fa 44 minuts, a les 10:00 UTC
Vent 15 kt del Est/Nord-Est
Temperatura 24°C
Humitat 14%
Pressió 1018 hPa
Visibilitat 10 km o més
sense núvols per sota de 1500 mi sense presència de cumulonimbus.

METAR: DNKA 241000Z 07015KT CAVOK 24/M05 Q1018

Hora: 11:44 (10:44 UTC)

Pronòstic

L'informe es va fer fa 4 hores i 44 minuts, a les 06:00 UTC
Pronòstic vàlid del 24 a les 06 UTC al 25 a les 12 UTC
Vent 11 kt del Est/Nord-Est
Visibilitat 10 km o més
sense núvols per sota de 1500 mi sense presència de cumulonimbus.
Temporalment
l' 24 a les 10 UTC al 24 a les 15 UTC
Vent 8 kt del Sud-Oest
Temporalment
l' 25 a les 08 UTC al 25 a les 12 UTC
Visibilitat: 5000 m
calitja

TAF: DNKA 240600Z 2406/2512 06011KT CAVOK TEMPO 2410/2415 22008KT TEMPO 2508/2512 5000 HZ

Observacions i pronòstics meteorològics de més de 4000 aeroports (METAR i TAF).

Les estacions disponibles són els punts grocs i vermells al mapa.

Posi el ratolí al punt desitjat per veure el nom de l'estació.

Feu clic per veure les observacions i els pronòstics meteorològics.

Per canviar el mapa: feu clic els botons verds amb una creu de color negre per apropar; al botó verd amb un guió per allunyar la imatge; o en les fletxes verdes per a mapes adjacents.


METAR-TAF: